AirSardinia Virtual Manager

AirSardinia Virtual La prima compagnia sarda di volo simulato




 METAR AND TAF INFORMATION
METAR FOR LESB
ADDS - METARS form results

(1858 UTC 26 June 2019)
Data provider http://aviationweather.gov/metar/data/
 
METAR text: LESB 261830Z AUTO 07011KT CAVOK 33/13 Q1019
Conditions at: LESB (MALLORCA SON BON, ES) observed 1830 UTC 26 June 2019
Temperature: 33.0°C (91°F)
Dewpoint: 13.0°C (55°F) [RH = 30%]
Pressure (altimeter): 30.09 inches Hg (1019.0 mb)
Winds: from the ENE (70 degrees) at 13 MPH (11 knots; 5.7 m/s)
Visibility: 6 or more miles (10+ km)
Ceiling: ceiling and visibility are OK
Clouds: unknown
Weather: no significant weather observed at this time

METAR text: LESB 261800Z AUTO 07011KT CAVOK 34/12 Q1019
Conditions at: LESB (MALLORCA SON BON, ES) observed 1800 UTC 26 June 2019
Temperature: 34.0°C (93°F)
Dewpoint: 12.0°C (54°F) [RH = 26%]
Pressure (altimeter): 30.09 inches Hg (1019.0 mb)
Winds: from the ENE (70 degrees) at 13 MPH (11 knots; 5.7 m/s)
Visibility: 6 or more miles (10+ km)
Ceiling: ceiling and visibility are OK
Clouds: unknown
Weather: no significant weather observed at this time

 AIRPORT MAP

 RUNWAY INFORMATION
Runway 06 Runway length 3281 ft Runway width 72 ft
Runway elevation 0 ft Runway displaced threshold 0 ft Runway heading 49
Runway 24 Runway length 3281 ft Runway width 72 ft
Runway elevation 0 ft Runway displaced threshold 0 ft Runway heading 229

 AIRPORT FREQUENCIES
Type APP Name PALMA APP Frequency 119.4 MHz
Type OPS Name PALMA OPS Frequency 130.25 MHz
Type TWR Name PALMA TWR Frequency 118.3 MHz

 AIRPORT NEAR NAVIGATION AIDS